Time;durP1;ratioP1;P1;durP2;ratioP2;P2;SDS_P1;SDS_P2;PMS_P1;PMS_P2;Temp;Humidity;BMP_temperature;BMP_pressure;BME280_temperature;BME280_humidity;BME280_pressure;Samples;Min_cycle;Max_cycle;Signal;HPM_P1;HPM_P2
2022/03/24 00:00:39;;;;;;;12.95;9.57;;;;;;;3.66;73.56;96804.19;6367692;22;20037;-61
2022/03/24 00:03:05;;;;;;;11.05;9.80;;;;;;;3.60;73.62;96799.25;6368254;22;20066;-62
2022/03/24 00:05:31;;;;;;;12.23;10.25;;;;;;;3.60;73.67;96793.22;6368104;22;20006;-62
2022/03/24 00:07:56;;;;;;;11.32;9.90;;;;;;;3.57;73.48;96799.41;6339821;22;20002;-61
2022/03/24 00:10:23;;;;;;;16.52;10.77;;;;;;;3.58;73.79;96795.88;6367461;22;20003;-62
2022/03/24 00:12:50;;;;;;;16.88;11.85;;;;;;;3.59;73.47;96794.94;6367954;22;20082;-61
2022/03/24 00:15:15;;;;;;;16.45;11.43;;;;;;;3.55;73.72;96799.47;6367552;22;20085;-61
2022/03/24 00:17:40;;;;;;;14.25;11.60;;;;;;;3.49;74.33;96791.94;6367514;22;20040;-63
2022/03/24 00:20:06;;;;;;;15.45;11.50;;;;;;;3.46;74.74;96786.03;6339652;22;20392;-61
2022/03/24 00:22:32;;;;;;;19.52;11.90;;;;;;;3.46;74.84;96794.69;6367497;22;20002;-61
2022/03/24 00:24:57;;;;;;;14.20;10.73;;;;;;;3.49;74.70;96791.09;6367813;22;20015;-61
2022/03/24 00:27:23;;;;;;;14.05;10.80;;;;;;;3.44;74.50;96794.78;6367816;22;20032;-61
2022/03/24 00:29:48;;;;;;;15.02;11.73;;;;;;;3.37;75.00;96784.72;6367509;22;20002;-62
2022/03/24 00:32:14;;;;;;;14.23;10.88;;;;;;;3.32;74.30;96789.28;6367955;22;19998;-62
2022/03/24 00:34:40;;;;;;;16.05;10.77;;;;;;;3.27;74.51;96786.88;6367547;22;20060;-62
2022/03/24 00:37:06;;;;;;;16.67;12.05;;;;;;;3.31;74.38;96775.41;6367935;22;20007;-62
2022/03/24 00:39:34;;;;;;;15.82;11.32;;;;;;;3.27;74.99;96787.72;6367381;22;20041;-62
2022/03/24 00:42:01;;;;;;;14.70;11.32;;;;;;;3.23;75.64;96787.94;6367320;22;20009;-62
2022/03/24 00:44:27;;;;;;;15.35;10.32;;;;;;;3.14;75.06;96781.38;6367675;22;20002;-62
2022/03/24 00:46:53;;;;;;;11.98;10.52;;;;;;;3.13;75.45;96779.69;6366814;22;20358;-61
2022/03/24 00:49:19;;;;;;;16.67;10.65;;;;;;;3.09;74.67;96783.34;6367685;22;20426;-62
2022/03/24 00:51:44;;;;;;;16.42;11.40;;;;;;;3.03;75.67;96784.47;6366987;22;20014;-61
2022/03/24 00:54:10;;;;;;;12.82;9.80;;;;;;;3.00;76.01;96776.81;6367239;22;20009;-62
2022/03/24 00:56:35;;;;;;;12.07;10.23;;;;;;;3.01;75.50;96776.72;6367345;22;20124;-61
2022/03/24 00:59:01;;;;;;;19.77;12.40;;;;;;;3.04;74.98;96773.16;6367398;22;20055;-61
2022/03/24 01:01:26;;;;;;;15.52;11.20;;;;;;;3.04;75.63;96774.91;6367020;22;19998;-62
2022/03/24 01:03:51;;;;;;;15.80;11.38;;;;;;;2.97;75.63;96777.78;6366893;22;20248;-62
2022/03/24 01:06:18;;;;;;;17.38;11.82;;;;;;;2.93;75.92;96772.78;6367444;22;20446;-61
2022/03/24 01:08:44;;;;;;;13.02;11.50;;;;;;;2.90;76.38;96768.56;6366410;22;20009;-61
2022/03/24 01:11:10;;;;;;;16.30;11.52;;;;;;;2.89;76.15;96768.63;6367110;22;20383;-62
2022/03/24 01:13:37;;;;;;;16.65;11.00;;;;;;;2.84;76.75;96768.81;6366789;22;20081;-61
2022/03/24 01:16:03;;;;;;;17.65;12.13;;;;;;;2.77;76.75;96770.88;6366780;22;20316;-61
2022/03/24 01:18:29;;;;;;;13.25;11.25;;;;;;;2.75;76.43;96769.22;6367611;22;20013;-61
2022/03/24 01:20:55;;;;;;;17.13;13.32;;;;;;;2.69;76.89;96766.00;6367261;22;20346;-62
2022/03/24 01:23:23;;;;;;;14.65;11.77;;;;;;;2.66;77.40;96766.13;6367146;22;20010;-63
2022/03/24 01:25:49;;;;;;;15.10;11.30;;;;;;;2.61;76.93;96762.03;6367405;22;20006;-62
2022/03/24 01:28:14;;;;;;;16.38;12.63;;;;;;;2.61;76.83;96764.63;6366839;22;20073;-61
2022/03/24 01:30:39;;;;;;;16.30;11.07;;;;;;;2.58;77.70;96756.06;6367178;22;20446;-61
2022/03/24 01:33:05;;;;;;;15.23;11.57;;;;;;;2.56;77.64;96754.44;6366900;22;20073;-61
2022/03/24 01:35:31;;;;;;;12.73;10.80;;;;;;;2.56;76.78;96755.28;6366817;22;20006;-61
2022/03/24 01:37:57;;;;;;;12.75;9.95;;;;;;;2.57;76.34;96756.13;6366544;22;20002;-61
2022/03/24 01:40:23;;;;;;;15.23;9.57;;;;;;;2.48;77.93;96753.94;6366642;22;20005;-62
2022/03/24 01:42:49;;;;;;;14.20;9.43;;;;;;;2.42;78.62;96755.03;6366892;22;20052;-62
2022/03/24 01:45:15;;;;;;;12.10;9.38;;;;;;;2.45;78.47;96757.50;6366644;22;20369;-62
2022/03/24 01:47:40;;;;;;;16.52;9.75;;;;;;;2.44;77.10;96748.00;6366390;22;20461;-61
2022/03/24 01:50:09;;;;;;;10.57;9.02;;;;;;;2.44;77.67;96753.19;6366452;22;20406;-61
2022/03/24 01:52:34;;;;;;;10.57;9.48;;;;;;;2.45;77.35;96757.50;6367279;22;19999;-61
2022/03/24 01:55:01;;;;;;;11.77;8.38;;;;;;;2.40;78.51;96755.06;6366502;22;20010;-63
2022/03/24 01:57:29;;;;;;;9.95;8.95;;;;;;;2.39;78.33;96755.16;6366346;22;20446;-62
2022/03/24 01:59:55;;;;;;;11.00;8.98;;;;;;;2.41;77.70;96750.72;6366877;22;20328;-61
2022/03/24 02:02:21;;;;;;;10.10;9.00;;;;;;;2.38;77.31;96743.06;6365914;22;20006;-61
2022/03/24 02:04:47;;;;;;;9.32;8.25;;;;;;;2.41;77.91;96742.94;6365492;22;20452;-60
2022/03/24 02:07:13;;;;;;;10.48;8.18;;;;;;;2.37;77.84;96741.38;6366573;22;20014;-61
2022/03/24 02:09:39;;;;;;;9.35;8.45;;;;;;;2.30;78.44;96751.19;6366236;22;20026;-61
2022/03/24 02:12:09;;;;;;;9.32;8.02;;;;;;;2.28;78.46;96742.63;6366050;22;20007;-61
2022/03/24 02:14:35;;;;;;;9.50;7.93;;;;;;;2.29;78.11;96739.94;6366161;22;20318;-61
2022/03/24 02:17:02;;;;;;;9.18;7.25;;;;;;;2.31;77.98;96744.22;6366834;22;20051;-61
2022/03/24 02:19:28;;;;;;;9.43;8.40;;;;;;;2.35;77.10;96740.63;6366257;22;20002;-61
2022/03/24 02:21:55;;;;;;;8.65;7.85;;;;;;;2.35;78.15;96735.41;6366453;22;20442;-61
2022/03/24 02:24:24;;;;;;;11.20;8.52;;;;;;;2.29;79.33;96736.50;6366770;22;20010;-61
2022/03/24 02:26:51;;;;;;;8.75;7.85;;;;;;;2.22;78.92;96732.50;6365880;22;20486;-60
2022/03/24 02:29:18;;;;;;;8.68;7.82;;;;;;;2.20;78.56;96737.75;6366492;22;20430;-60
2022/03/24 02:31:49;;;;;;;8.65;7.75;;;;;;;2.15;79.47;96732.72;6367124;22;20003;-61
2022/03/24 02:34:40;;;;;;;8.25;7.55;;;;;;;2.10;79.14;96734.69;6366405;22;20043;-60
2022/03/24 02:37:08;;;;;;;10.45;8.05;;;;;;;2.09;78.87;96727.81;6366419;22;20009;-61
2022/03/24 02:39:39;;;;;;;9.15;7.13;;;;;;;2.06;79.17;96730.53;6366315;22;19998;-62
2022/03/24 02:42:06;;;;;;;8.57;7.72;;;;;;;2.10;78.72;96732.09;6366825;22;20191;-60
2022/03/24 02:44:32;;;;;;;9.75;7.75;;;;;;;2.09;79.06;96729.53;6366151;22;20030;-61
2022/03/24 02:47:00;;;;;;;8.15;7.43;;;;;;;2.05;78.49;96727.97;6338350;22;20071;-61
2022/03/24 02:49:30;;;;;;;7.30;6.65;;;;;;;1.99;79.22;96735.13;6366428;22;20007;-61
2022/03/24 02:51:58;;;;;;;7.30;6.45;;;;;;;1.95;78.84;96733.56;6366247;22;20485;-61
2022/03/24 02:54:25;;;;;;;8.35;7.40;;;;;;;1.90;78.99;96730.31;6366352;22;20056;-61
2022/03/24 02:56:50;;;;;;;7.47;6.78;;;;;;;1.91;79.85;96737.22;6366606;22;20542;-61
2022/03/24 02:59:16;;;;;;;8.23;7.43;;;;;;;1.90;79.41;96740.72;6366195;22;20180;-61
2022/03/24 03:01:50;;;;;;;7.70;6.95;;;;;;;1.92;78.94;96732.84;6366769;22;20006;-61
2022/03/24 03:04:15;;;;;;;8.05;7.18;;;;;;;1.96;79.03;96732.66;6366042;22;20438;-61
2022/03/24 03:06:42;;;;;;;7.90;7.10;;;;;;;1.94;78.73;96734.47;6366453;22;20090;-60
2022/03/24 03:09:07;;;;;;;8.32;7.53;;;;;;;1.85;79.30;96727.03;6366915;22;20032;-61
2022/03/24 03:11:33;;;;;;;11.32;7.90;;;;;;;1.79;79.36;96730.75;6365962;22;20436;-61
2022/03/24 03:14:00;;;;;;;7.80;7.07;;;;;;;1.76;79.33;96730.84;6366378;22;20071;-61
2022/03/24 03:16:26;;;;;;;7.68;6.90;;;;;;;1.73;79.65;96730.16;6366849;22;20047;-61
2022/03/24 03:18:52;;;;;;;7.43;6.75;;;;;;;1.67;79.51;96731.25;6368243;22;20006;-60
2022/03/24 03:21:18;;;;;;;7.95;7.13;;;;;;;1.65;80.12;96736.47;6368557;22;20003;-61
2022/03/24 03:23:44;;;;;;;8.38;7.38;;;;;;;1.60;80.76;96728.03;6368863;22;20074;-61
2022/03/24 03:26:15;;;;;;;7.70;7.03;;;;;;;1.59;80.76;96736.72;6368211;22;20033;-61
2022/03/24 03:28:41;;;;;;;9.75;7.57;;;;;;;1.62;79.43;96736.59;6368242;22;20389;-62
2022/03/24 03:31:06;;;;;;;10.88;9.77;;;;;;;1.65;79.60;96726.09;6367876;22;20010;-61
2022/03/24 03:33:32;;;;;;;7.93;7.13;;;;;;;1.69;79.44;96729.44;6367990;22;20002;-61
2022/03/24 03:35:58;;;;;;;8.30;7.50;;;;;;;1.64;79.92;96733.97;6368208;22;20071;-61
2022/03/24 03:38:24;;;;;;;8.05;7.25;;;;;;;1.58;80.45;96729.84;6367719;22;20369;-62
2022/03/24 03:40:52;;;;;;;10.88;7.50;;;;;;;1.57;81.25;96733.34;6363255;22;20036;-61
2022/03/24 03:43:17;;;;;;;8.32;7.53;;;;;;;1.52;80.99;96730.94;6339211;22;20018;-61
2022/03/24 03:45:44;;;;;;;8.25;7.45;;;;;;;1.51;81.22;96728.41;6366919;22;20346;-61
2022/03/24 03:48:10;;;;;;;9.18;7.25;;;;;;;1.51;80.86;96724.06;6367283;22;20093;-62
2022/03/24 03:50:36;;;;;;;8.70;7.80;;;;;;;1.49;80.60;96727.63;6368288;22;19998;-61
2022/03/24 03:53:02;;;;;;;13.05;7.65;;;;;;;1.48;80.68;96737.16;6368152;22;20442;-61
2022/03/24 03:55:28;;;;;;;7.43;6.72;;;;;;;1.48;81.54;96734.56;6368309;22;20252;-61
2022/03/24 03:57:55;;;;;;;9.20;8.30;;;;;;;1.47;80.91;96739.81;6367501;22;20442;-61
2022/03/24 04:03:05;;;;;;;8.85;7.53;;;;;;;1.49;79.64;96730.22;6367812;22;20533;-61
2022/03/24 04:05:32;;;;;;;8.20;7.25;;;;;;;1.51;80.25;96728.41;6367732;22;20030;-61
2022/03/24 04:07:57;;;;;;;8.60;7.65;;;;;;;1.42;80.90;96729.63;6366375;22;20009;-61
2022/03/24 04:10:23;;;;;;;8.18;7.35;;;;;;;1.35;81.16;96726.41;6367798;22;19998;-61
2022/03/24 04:12:50;;;;;;;8.48;7.72;;;;;;;1.35;80.82;96726.41;6367674;22;20026;-61
2022/03/24 04:15:16;;;;;;;10.10;8.45;;;;;;;1.30;81.02;96725.75;6367686;22;20006;-60
2022/03/24 04:17:42;;;;;;;9.20;8.23;;;;;;;1.25;81.54;96728.50;6367726;22;20010;-61
2022/03/24 04:20:08;;;;;;;8.48;7.68;;;;;;;1.23;80.83;96727.72;6367918;22;19998;-61
2022/03/24 04:22:35;;;;;;;8.75;8.05;;;;;;;1.25;80.97;96727.69;6367700;22;20010;-61
2022/03/24 04:25:01;;;;;;;8.23;7.53;;;;;;;1.25;80.89;96717.31;6368354;22;20223;-61
2022/03/24 04:27:26;;;;;;;14.15;8.38;;;;;;;1.24;81.10;96726.00;6366925;22;20063;-61
2022/03/24 04:29:51;;;;;;;10.52;7.93;;;;;;;1.18;81.14;96726.22;6367486;22;20010;-60
2022/03/24 04:32:17;;;;;;;9.77;8.25;;;;;;;1.14;81.76;96723.75;6367163;22;20002;-61
2022/03/24 04:34:42;;;;;;;9.70;7.07;;;;;;;1.14;81.35;96722.91;6339392;22;20006;-62
2022/03/24 04:37:07;;;;;;;8.43;7.63;;;;;;;1.15;80.72;96724.59;6367680;22;20029;-61
2022/03/24 04:39:33;;;;;;;9.50;8.55;;;;;;;1.18;81.39;96721.03;6367608;22;20117;-61
2022/03/24 04:41:58;;;;;;;9.48;8.30;;;;;;;1.18;80.76;96724.47;6367291;22;20442;-61
2022/03/24 04:44:24;;;;;;;8.68;7.82;;;;;;;1.19;80.76;96727.91;6367304;22;20012;-61
2022/03/24 04:46:50;;;;;;;11.32;8.38;;;;;;;1.16;80.68;96722.84;6367162;22;20461;-61
2022/03/24 04:49:16;;;;;;;11.98;9.18;;;;;;;1.11;80.71;96736.84;6367808;22;19998;-61
2022/03/24 04:51:42;;;;;;;10.45;9.30;;;;;;;1.06;81.92;96732.72;6367237;22;20014;-61
2022/03/24 04:54:08;;;;;;;11.80;10.27;;;;;;;1.02;81.62;96733.72;6367588;22;20030;-62
2022/03/24 04:56:33;;;;;;;13.95;9.82;;;;;;;1.03;81.53;96728.50;6367198;22;20002;-60
2022/03/24 04:58:59;;;;;;;12.77;10.50;;;;;;;0.97;82.19;96733.91;6368061;22;20009;-61
2022/03/24 05:01:24;;;;;;;10.52;9.48;;;;;;;0.95;82.83;96738.28;6367428;22;20068;-60
2022/03/24 05:03:50;;;;;;;13.50;10.60;;;;;;;0.96;82.13;96734.81;6367379;22;20017;-60
2022/03/24 05:06:16;;;;;;;13.48;9.10;;;;;;;0.97;82.33;96739.94;6367539;22;20442;-60
2022/03/24 05:08:41;;;;;;;13.57;10.85;;;;;;;0.93;82.63;96737.50;6367496;22;20051;-60
2022/03/24 05:11:07;;;;;;;11.48;10.30;;;;;;;0.91;83.03;96731.53;6367362;22;20338;-61
2022/03/24 05:13:32;;;;;;;15.38;9.75;;;;;;;0.89;82.73;96735.94;6367554;22;20047;-61
2022/03/24 05:15:57;;;;;;;12.45;10.63;;;;;;;0.85;82.84;96745.56;6367684;22;20005;-61
2022/03/24 05:18:25;;;;;;;11.00;9.90;;;;;;;0.83;83.00;96747.38;6367663;22;20005;-61
2022/03/24 05:20:51;;;;;;;11.52;10.35;;;;;;;0.86;82.26;96744.66;6366806;22;20052;-61
2022/03/24 05:23:17;;;;;;;11.20;9.15;;;;;;;0.90;81.90;96746.28;6366632;22;19998;-61
2022/03/24 05:25:44;;;;;;;10.82;9.70;;;;;;;0.93;81.26;96738.38;6367237;22;20060;-61
2022/03/24 05:28:09;;;;;;;10.35;9.35;;;;;;;0.94;81.90;96746.97;6367944;22;20320;-61
2022/03/24 05:30:36;;;;;;;10.38;9.00;;;;;;;0.93;81.99;96746.16;6367660;22;20029;-62
2022/03/24 05:33:02;;;;;;;10.43;9.38;;;;;;;0.88;82.09;96748.03;6367442;22;20006;-61
2022/03/24 05:35:29;;;;;;;11.15;10.07;;;;;;;0.86;82.72;96742.06;6367070;22;20081;-61
2022/03/24 05:37:55;;;;;;;11.35;10.05;;;;;;;0.85;83.64;96749.03;6367076;22;20003;-62
2022/03/24 05:40:21;;;;;;;13.10;9.45;;;;;;;0.91;82.84;96741.91;6367056;22;20430;-62
2022/03/24 05:42:46;;;;;;;13.52;9.35;;;;;;;0.96;82.27;96747.78;6367476;22;20026;-61
2022/03/24 05:45:11;;;;;;;12.35;9.60;;;;;;;1.02;82.35;96747.56;6367044;22;20006;-60
2022/03/24 05:47:37;;;;;;;11.30;9.40;;;;;;;1.04;81.53;96748.34;6366666;22;20018;-61
2022/03/24 05:50:03;;;;;;;10.00;9.02;;;;;;;1.04;81.53;96755.25;6366948;22;20385;-61
2022/03/24 05:52:28;;;;;;;10.88;9.77;;;;;;;1.02;82.31;96754.47;6366964;22;19994;-60
2022/03/24 05:54:54;;;;;;;10.57;9.40;;;;;;;1.04;82.64;96756.13;6367113;22;20006;-61
2022/03/24 05:57:20;;;;;;;12.05;9.88;;;;;;;1.03;82.32;96759.63;6367336;22;19998;-62
2022/03/24 05:59:45;;;;;;;12.07;9.02;;;;;;;1.12;82.04;96761.03;6366488;22;20013;-60
2022/03/24 06:02:13;;;;;;;10.82;9.77;;;;;;;1.16;82.47;96753.97;6367095;22;20002;-61
2022/03/24 06:04:41;;;;;;;9.85;8.85;;;;;;;1.16;81.82;96754.81;6366940;22;20010;-61
2022/03/24 06:07:07;;;;;;;13.85;9.70;;;;;;;1.17;82.23;96756.50;6367071;22;19998;-61
2022/03/24 06:09:34;;;;;;;10.57;9.05;;;;;;;1.16;82.47;96766.94;6367450;22;20042;-60
2022/03/24 06:11:59;;;;;;;9.90;8.95;;;;;;;1.16;81.76;96767.78;6338725;22;20002;-61
2022/03/24 06:14:25;;;;;;;12.88;9.15;;;;;;;1.25;81.92;96769.19;6367148;22;20453;-60
2022/03/24 06:16:51;;;;;;;14.02;10.05;;;;;;;1.30;82.23;96769.88;6366934;22;20002;-60
2022/03/24 06:19:17;;;;;;;11.25;9.77;;;;;;;1.30;82.38;96767.28;6366868;22;20017;-60
2022/03/24 06:21:43;;;;;;;11.98;10.00;;;;;;;1.34;82.24;96763.66;6366266;22;20003;-60
2022/03/24 06:24:08;;;;;;;12.65;10.27;;;;;;;1.38;81.99;96772.16;6366949;22;20029;-60
2022/03/24 06:26:34;;;;;;;11.32;9.82;;;;;;;1.39;81.69;96771.25;6366479;22;20047;-61
2022/03/24 06:29:01;;;;;;;13.45;10.80;;;;;;;1.39;82.00;96772.09;6367040;22;20498;-61
2022/03/24 06:31:27;;;;;;;12.80;9.57;;;;;;;1.43;82.00;96767.66;6366159;22;20020;-60
2022/03/24 06:33:53;;;;;;;13.00;10.05;;;;;;;1.50;81.40;96768.25;6366750;22;20024;-60
2022/03/24 06:36:19;;;;;;;10.18;9.18;;;;;;;1.56;81.48;96768.88;6366575;22;20003;-61
2022/03/24 06:38:45;;;;;;;16.13;9.35;;;;;;;1.60;81.42;96764.38;6365588;22;20006;-61
2022/03/24 06:41:10;;;;;;;14.60;10.75;;;;;;;1.63;80.71;96774.66;6364995;22;20026;-61
2022/03/24 06:43:36;;;;;;;12.50;11.20;;;;;;;1.68;81.76;96774.47;6366221;22;20339;-60
2022/03/24 06:46:02;;;;;;;24.92;13.43;;;;;;;1.76;81.97;96776.78;6367084;22;20350;-60
2022/03/24 06:48:28;;;;;;;15.75;12.77;;;;;;;1.79;81.27;96774.91;6207710;22;20046;-60
2022/03/24 06:50:54;;;;;;;16.70;12.15;;;;;;;1.84;80.90;96767.78;6208393;22;20461;-59
2022/03/24 06:53:19;;;;;;;20.33;14.43;;;;;;;1.90;80.67;96771.88;6208575;23;20079;-58
2022/03/24 06:55:45;;;;;;;22.98;14.02;;;;;;;1.95;80.46;96771.66;6209144;23;20046;-60
2022/03/24 06:58:10;;;;;;;29.98;16.15;;;;;;;2.02;80.70;96775.72;6208669;23;20004;-58
2022/03/24 07:00:36;;;;;;;22.75;15.73;;;;;;;2.07;81.00;96770.31;6209136;22;20489;-60
2022/03/24 07:03:01;;;;;;;20.20;15.90;;;;;;;2.13;79.44;96770.09;6206240;22;20016;-59
2022/03/24 07:05:27;;;;;;;22.02;14.63;;;;;;;2.23;79.51;96775.75;6207493;23;20008;-60
2022/03/24 07:07:54;;;;;;;21.27;14.30;;;;;;;2.31;79.14;96767.63;6208120;22;20091;-60
2022/03/24 07:10:20;;;;;;;20.20;13.82;;;;;;;2.37;79.37;96772.56;6208524;23;20022;-60
2022/03/24 07:12:48;;;;;;;20.38;14.93;;;;;;;2.41;79.96;96769.75;6208703;22;20009;-59
2022/03/24 07:15:13;;;;;;;17.33;14.43;;;;;;;2.46;80.46;96769.56;6209249;22;20008;-60
2022/03/24 07:17:39;;;;;;;18.20;14.73;;;;;;;2.52;80.20;96773.69;6208234;22;20098;-60
2022/03/24 07:20:06;;;;;;;19.48;13.60;;;;;;;3.06;79.43;96768.72;6313755;22;20013;-58
2022/03/24 07:22:33;;;;;;;21.13;14.10;;;;;;;4.15;76.45;96768.88;6208491;23;20317;-56
2022/03/24 07:24:59;;;;;;;14.27;12.77;;;;;;;5.00;73.35;96764.56;6208692;22;20058;-58
2022/03/24 07:27:25;;;;;;;12.60;10.85;;;;;;;5.91;70.34;96762.31;6208217;23;20008;-56
2022/03/24 07:29:50;;;;;;;14.63;10.43;;;;;;;6.56;67.66;96759.47;6208255;23;19997;-59
2022/03/24 07:32:16;;;;;;;15.00;12.50;;;;;;;7.29;65.09;96762.97;6314077;22;20024;-60
2022/03/24 07:34:41;;;;;;;14.00;8.43;;;;;;;7.86;61.54;96761.13;6207927;23;20005;-59
2022/03/24 07:37:08;;;;;;;9.05;7.10;;;;;;;8.40;58.94;96755.94;6207616;23;20030;-58
2022/03/24 07:39:33;;;;;;;7.10;6.45;;;;;;;8.91;58.19;96754.34;6208609;22;20016;-60
2022/03/24 07:41:59;;;;;;;13.30;8.20;;;;;;;9.35;57.38;96754.81;6207831;23;20340;-60
2022/03/24 07:44:25;;;;;;;16.85;9.30;;;;;;;9.64;55.75;96747.50;6208404;23;20005;-59
2022/03/24 07:46:50;;;;;;;16.10;11.73;;;;;;;9.78;57.46;96746.50;6261653;22;20064;-60
2022/03/24 07:49:15;;;;;;;31.30;13.55;;;;;;;10.18;53.62;96750.63;6368193;22;20387;-59
2022/03/24 07:51:42;;;;;;;37.17;18.27;;;;;;;10.69;51.72;96753.91;6367979;22;20086;-59
2022/03/24 07:54:10;;;;;;;19.88;12.75;;;;;;;11.13;50.44;96749.66;6368186;22;20002;-59
2022/03/24 07:56:37;;;;;;;21.20;11.25;;;;;;;11.41;46.79;96747.53;6368161;22;20006;-60
2022/03/24 07:59:05;;;;;;;9.98;8.48;;;;;;;11.63;48.68;96755.50;6368141;22;20002;-59
2022/03/24 08:01:36;;;;;;;8.32;7.25;;;;;;;11.66;46.86;96757.91;6368166;22;20045;-59
2022/03/24 08:04:05;;;;;;;5.93;5.32;;;;;;;11.74;45.73;96752.88;6368083;22;20094;-59
2022/03/24 08:06:31;;;;;;;5.28;4.78;;;;;;;11.71;47.72;96756.56;6368222;22;20077;-59
2022/03/24 08:08:57;;;;;;;10.50;9.27;;;;;;;11.70;45.55;96754.91;6368121;22;20002;-58
2022/03/24 08:11:23;;;;;;;8.80;6.15;;;;;;;11.99;43.15;96762.25;6367664;22;20014;-60
2022/03/24 08:13:53;;;;;;;6.75;5.60;;;;;;;11.95;42.67;96766.13;6367690;22;20002;-56
2022/03/24 08:16:20;;;;;;;11.05;5.28;;;;;;;12.15;40.43;96761.03;6367467;22;20002;-56
2022/03/24 08:18:45;;;;;;;9.02;5.40;;;;;;;12.23;39.37;96757.78;6367277;22;20063;-56
2022/03/24 08:21:10;;;;;;;6.65;5.00;;;;;;;11.61;41.02;96758.28;6367695;22;20044;-56
2022/03/24 08:23:36;;;;;;;5.10;4.60;;;;;;;11.69;42.28;96757.66;6367554;22;20002;-56
2022/03/24 08:26:02;;;;;;;8.48;5.40;;;;;;;12.05;41.89;96760.97;6367561;22;20061;-55
2022/03/24 08:28:27;;;;;;;5.75;5.15;;;;;;;12.22;43.58;96749.00;6367475;22;20006;-57
2022/03/24 08:30:53;;;;;;;10.80;5.68;;;;;;;12.06;41.67;96751.25;6367555;22;20468;-57
2022/03/24 08:33:18;;;;;;;6.40;5.80;;;;;;;11.90;38.92;96755.09;6367662;22;20010;-58
2022/03/24 08:35:43;;;;;;;10.00;5.95;;;;;;;11.74;39.68;96763.41;6367765;22;20002;-55
2022/03/24 08:38:10;;;;;;;7.78;6.05;;;;;;;11.74;41.48;96761.59;6366285;22;20005;-56
2022/03/24 08:40:36;;;;;;;8.10;5.80;;;;;;;11.92;39.48;96765.50;6364318;22;20010;-56
2022/03/24 08:43:03;;;;;;;6.18;5.60;;;;;;;11.73;41.87;96756.47;6338095;22;20077;-57
2022/03/24 08:45:29;;;;;;;5.45;4.95;;;;;;;12.08;41.06;96765.16;6367207;22;20055;-57
2022/03/24 08:47:55;;;;;;;9.23;6.28;;;;;;;12.34;40.37;96759.53;6367387;22;20015;-56
2022/03/24 08:50:21;;;;;;;8.30;5.68;;;;;;;12.31;39.55;96761.47;6367301;22;20003;-59
2022/03/24 08:52:48;;;;;;;6.43;5.85;;;;;;;12.43;39.28;96756.97;6367737;22;20006;-59
2022/03/24 08:55:14;;;;;;;6.28;5.68;;;;;;;12.86;39.46;96765.72;6367730;22;20110;-58
2022/03/24 08:57:41;;;;;;;7.38;5.43;;;;;;;13.00;37.02;96758.44;6367907;22;19998;-59
2022/03/24 09:00:12;;;;;;;8.32;5.57;;;;;;;12.97;38.49;96761.34;6367485;22;20006;-58
2022/03/24 09:02:50;;;;;;;6.10;5.60;;;;;;;12.87;38.11;96762.13;6367081;22;20008;-57
2022/03/24 09:05:16;;;;;;;6.20;5.60;;;;;;;12.94;38.80;96757.16;6367422;22;20006;-57
2022/03/24 09:07:42;;;;;;;9.98;5.72;;;;;;;13.26;35.88;96755.38;6367377;22;20037;-59
2022/03/24 09:10:10;;;;;;;6.63;5.97;;;;;;;13.70;36.47;96752.47;6366731;22;20043;-59
2022/03/24 09:12:38;;;;;;;6.90;5.45;;;;;;;14.04;35.79;96755.63;6365903;22;20434;-57
2022/03/24 09:15:05;;;;;;;7.20;5.25;;;;;;;14.47;33.78;96750.88;6367122;22;20010;-59
2022/03/24 09:17:32;;;;;;;9.05;4.47;;;;;;;13.98;33.17;96750.03;6366503;22;20029;-59
2022/03/24 09:19:58;;;;;;;8.93;5.25;;;;;;;14.30;33.43;96743.63;6367229;22;20334;-59
2022/03/24 09:22:23;;;;;;;5.60;5.10;;;;;;;14.44;34.04;96745.03;6367171;22;20082;-59
2022/03/24 09:24:48;;;;;;;5.80;5.20;;;;;;;14.94;34.23;96751.97;6366533;22;20392;-58
2022/03/24 09:27:15;;;;;;;6.05;5.25;;;;;;;14.90;32.05;96740.78;6365135;22;20041;-56
2022/03/24 09:29:41;;;;;;;6.88;5.75;;;;;;;14.73;31.78;96745.03;6366494;22;20006;-60
2022/03/24 09:32:12;;;;;;;5.70;5.15;;;;;;;14.95;32.36;96743.03;6367439;22;20003;-60
2022/03/24 09:34:38;;;;;;;5.03;4.60;;;;;;;15.52;29.87;96749.25;6366973;22;20061;-61
2022/03/24 09:37:04;;;;;;;5.55;4.63;;;;;;;14.99;30.50;96740.94;6367308;22;20510;-60
2022/03/24 09:39:29;;;;;;;5.65;4.70;;;;;;;14.24;31.05;96738.91;6367156;22;20117;-60
2022/03/24 09:41:55;;;;;;;5.78;4.43;;;;;;;14.50;30.32;96746.28;6365947;22;19998;-61
2022/03/24 09:44:21;;;;;;;6.60;5.28;;;;;;;14.18;32.15;96741.13;6366339;22;20006;-59
2022/03/24 09:46:46;;;;;;;5.47;4.97;;;;;;;14.26;32.15;96734.31;6366174;22;20018;-59
2022/03/24 09:49:12;;;;;;;6.28;5.68;;;;;;;14.32;31.47;96731.94;6366445;22;20002;-59
2022/03/24 09:51:42;;;;;;;7.70;5.25;;;;;;;14.43;32.75;96732.75;6366201;22;20628;-59
2022/03/24 09:54:10;;;;;;;6.43;5.75;;;;;;;14.94;30.99;96727.28;6366704;22;20006;-59
2022/03/24 09:56:36;;;;;;;6.82;5.03;;;;;;;15.09;31.65;96722.34;6366324;22;20026;-59
2022/03/24 09:59:02;;;;;;;6.57;5.40;;;;;;;15.44;31.13;96724.28;6366408;22;20006;-59
2022/03/24 10:01:27;;;;;;;10.07;5.38;;;;;;;15.55;30.27;96717.09;6366480;22;20002;-60
2022/03/24 10:04:10;;;;;;;6.88;5.68;;;;;;;15.83;29.95;96725.06;6366477;22;20013;-60
2022/03/24 10:06:39;;;;;;;6.40;5.32;;;;;;;16.03;29.32;96721.31;6366269;22;20081;-59
2022/03/24 10:09:05;;;;;;;6.13;5.03;;;;;;;16.22;29.43;96716.81;6366251;22;20031;-60
2022/03/24 10:11:30;;;;;;;7.82;5.40;;;;;;;16.48;28.87;96718.72;6366100;22;20077;-60
2022/03/24 10:13:58;;;;;;;5.50;4.90;;;;;;;16.77;27.32;96712.28;6366212;22;20013;-57
2022/03/24 10:16:32;;;;;;;6.68;5.35;;;;;;;16.97;27.06;96712.88;6366408;22;20017;-60
2022/03/24 10:19:03;;;;;;;6.50;5.53;;;;;;;17.09;26.54;96713.47;6366312;22;20063;-57
2022/03/24 10:21:29;;;;;;;5.72;5.15;;;;;;;17.31;26.71;96708.59;6366000;22;20044;-57
2022/03/24 10:24:06;;;;;;;10.48;5.25;;;;;;;17.68;24.67;96699.44;6365915;22;20010;-57
2022/03/24 10:26:41;;;;;;;6.60;5.97;;;;;;;17.04;26.50;96700.69;6367289;22;20006;-57
2022/03/24 10:29:08;;;;;;;8.13;6.20;;;;;;;17.21;26.43;96697.25;6366841;22;19998;-60
2022/03/24 10:31:35;;;;;;;8.50;6.53;;;;;;;17.37;25.91;96692.00;6368138;22;20409;-57
2022/03/24 10:34:01;;;;;;;7.75;5.30;;;;;;;17.85;26.14;96696.81;6367601;22;20010;-57
2022/03/24 10:36:27;;;;;;;7.72;5.95;;;;;;;18.24;25.17;96688.25;6367502;22;19998;-57
2022/03/24 10:39:00;;;;;;;9.30;6.32;;;;;;;18.11;25.34;96679.91;6367816;22;20002;-57
2022/03/24 10:41:29;;;;;;;7.97;5.95;;;;;;;18.40;25.12;96676.75;6368779;22;20351;-57
2022/03/24 10:43:57;;;;;;;6.97;5.25;;;;;;;18.52;23.94;96684.38;6368539;22;20029;-59
2022/03/24 10:46:27;;;;;;;7.32;5.47;;;;;;;18.25;24.51;96676.59;6368166;22;20033;-57
2022/03/24 10:48:53;;;;;;;12.75;5.57;;;;;;;18.07;25.59;96670.56;6368586;22;20010;-57
2022/03/24 10:51:25;;;;;;;6.22;5.30;;;;;;;18.38;25.58;96675.22;6368316;22;20342;-60
2022/03/24 10:53:53;;;;;;;6.88;5.50;;;;;;;19.06;23.81;96669.66;6368849;22;20065;-60
2022/03/24 10:56:29;;;;;;;5.28;4.85;;;;;;;19.08;23.43;96673.81;6367253;22;19994;-58
2022/03/24 10:58:58;;;;;;;7.28;5.40;;;;;;;18.44;25.77;96671.88;6367628;22;20013;-58
2022/03/24 11:01:26;;;;;;;7.50;5.30;;;;;;;18.58;24.97;96668.56;6366893;22;20426;-58
2022/03/24 11:03:52;;;;;;;5.63;4.90;;;;;;;18.69;24.00;96671.88;6367685;22;20093;-58
2022/03/24 11:06:19;;;;;;;5.53;4.95;;;;;;;18.48;23.93;96665.25;6367308;22;20073;-59
2022/03/24 11:08:55;;;;;;;5.28;4.75;;;;;;;18.15;24.47;96666.09;6368419;22;20006;-60
2022/03/24 11:11:21;;;;;;;7.45;4.68;;;;;;;18.45;24.71;96662.88;6367824;22;20320;-59
2022/03/24 11:13:51;;;;;;;9.27;5.25;;;;;;;18.22;25.11;96660.91;6339122;22;20358;-59
2022/03/24 11:16:17;;;;;;;8.38;5.85;;;;;;;18.96;24.52;96659.16;6368030;22;20002;-59
2022/03/24 11:18:45;;;;;;;9.60;5.55;;;;;;;19.51;23.89;96661.97;6368525;22;20077;-60
2022/03/24 11:21:23;;;;;;;7.43;5.25;;;;;;;19.12;23.65;96655.63;6368319;22;20454;-59
2022/03/24 11:23:53;;;;;;;5.35;4.30;;;;;;;18.70;23.72;96649.56;6367985;22;20063;-59
2022/03/24 11:26:20;;;;;;;4.57;4.18;;;;;;;18.53;24.72;96648.72;6367400;22;20055;-60
2022/03/24 11:28:46;;;;;;;5.15;4.65;;;;;;;18.63;24.28;96645.88;6368018;22;19998;-60
2022/03/24 11:31:14;;;;;;;7.90;4.30;;;;;;;18.72;24.01;96642.22;6368282;22;20044;-60